Tiempo atmosférico en la estación meteorológica de Girona Aeropuerto, Girona (143 m.)

Fecha
DESCASC
Temp. máxima en grados centígrados (hora)
DESCASC
Temp. mínima en grados centígrados (hora)
DESCASC
Temp. media en grados centígrados
DESCASC
Racha de viento máxima en m/sg (hora)
DESCASC
Velocidad máxima media en intervalos de 10 minutos(hora)
DESCASC
Precipitaciones diarias en mm
DESCASC
Precipitaciones de 00:00 a 06:00 en mm
DESCASC
Precipitaciones de 06:00 a 12:00 en mm
DESCASC
Precipitaciones de 12:00 a 18:00 en mm
DESCASC
Precipitaciones de 18:00 a 24:00 en mm
DESCASC
17-09-2017 26 (16:40) 8 (06:10) 17 11.39 (15:00) 6.94 (15:00) 0 0 0 0 0
16-09-2017 21.3 (15:50) 6.9 (07:00) 14.1 12.78 (18:50) 8.33 (18:50) 0.2 0 0 0 0.2
15-09-2017 16.1 (00:10) 11.4 (23:59) 13.8 7.22 (10:20) 5 (10:20) 15 9.2 0.5 4.2 1.1
14-09-2017 26.9 (13:00) 14.5 (00:00) 20.7 10.28 (14:40) 8.06 (14:40) 0 0 0 0 0
13-09-2017 28.9 (15:40) 13.4 (00:00) 21.1 11.67 (18:20) 8.89 (18:20) 0 0 0 0 0
12-09-2017 23.8 (13:30) 16.6 (00:00) 20.2 8.89 (17:40) 5.83 (15:40) 0.1 0 0.1 0 0
11-09-2017 27.1 (14:30) 11.7 (00:00) 19.4 8.89 (15:10) 4.72 (11:10) 0 0 0 0 0
10-09-2017 24.7 (16:10) 10.5 (00:00) 17.6 8.89 (16:10) 5.28 (16:10) 0.6 0.6 0 0 0
09-09-2017 23 (12:20) 13.6 (00:00) 18.3 14.44 (12:50) 9.17 (13:00) 14.2 0 0 14.2 0
08-09-2017 26.3 (14:50) 16.3 (00:00) 21.3 12.5 (17:20) 8.89 (17:20) 0 0 0 0 0
07-09-2017 27.2 (15:00) 16.2 (00:00) 21.7 8.89 (17:40) 6.11 (17:50) 0 0 0 0 0
06-09-2017 26 (13:20) 19.6 (00:00) 22.8 8.33 (16:30) 6.39 (16:30) 10.3 0 0 9.8 0.5
05-09-2017 33 (14:00) 15.3 (00:00) 24.2 10.83 (14:50) 7.5 (16:40) 0 0 0 0 0
04-09-2017 30.4 (14:40) 17.6 (00:00) 24 8.89 (14:50) 5.83 (14:50) 0 0 0 0 0
03-09-2017 25.3 (15:30) 15.9 (00:00) 20.6 8.89 (14:00) 5.56 (14:00) 0 0 0 0 0
02-09-2017 27.6 (15:00) 13.8 (00:00) 20.7 9.72 (16:00) 6.94 (18:40) 0.4 0.4 0 0 0
01-09-2017 25.6 (16:00) 14.7 (00:00) 20.2 6.67 (12:50) 4.72 (16:10) 0 0 0 0 0
31-08-2017 23.4 (00:10) 16.2 (00:00) 19.8 8.33 (00:50) 6.39 (16:50) 3.6 0 2.4 1.2 0
30-08-2017 33.6 (15:40) 19.8 (00:00) 26.7 14.44 (14:40) 10 (14:00) 0 0 0 0 0
29-08-2017 37.2 (15:00) 20.5 (00:00) 28.9 16.11 (15:20) 11.11 (14:40) 0 0 0 0 0
28-08-2017 36.5 (14:40) 19.3 (00:00) 27.9 8.89 (16:40) 6.67 (17:40) 0 0 0 0 0
27-08-2017 34.1 (15:20) 21.1 (00:00) 27.6 8.89 (17:10) 5.28 (16:10) 0 0 0 0 0
26-08-2017 32.5 (14:10) 19.2 (00:00) 25.9 9.72 (15:10) 6.94 (16:30) 0 0 0 0 0
25-08-2017 33.6 (15:30) 16.4 (00:00) 25 11.67 (14:20) 8.33 (13:30) 0 0 0 0 0
24-08-2017 33.9 (14:40) 18.7 (00:00) 26.3 14.44 (17:30) 11.11 (17:50) 0 0 0 0 0
23-08-2017 32.6 (17:00) 19.3 (00:00) 25.9 10.28 (15:10) 7.5 (16:00) 0 0 0 0 0
22-08-2017 31.8 (14:50) 15.3 (00:00) 23.5 11.67 (16:40) 8.89 (17:20) 0 0 0 0 0

Gráficas

Temp. máximas Temp. mínimas Temp. medias Precipitaciones Rachas de viento máximas Velocidades máximas media en intervalos de 10 minutos

Datos horarios

Fecha y hora oficial Temperatura (ºC) Velocidad del viento (km/h) Dirección del viento Racha (km/h) Dirección de racha Precipitación (mm) Presión (hPa) Tendencia (hPa) Humedad (%)
2017-09-20 23:00:00 15.4 0 Calma 8 Oeste 0 1003.2 0.4 89
2017-09-20 22:00:00 17.1 6 Sudoeste 13 Sur 0 1003.2 0.5 84
2017-09-20 21:00:00 17.8 10 Sur 28 Sur 0 1003.2 0.7 81
2017-09-20 20:00:00 19.1 19 Sur 35 Sur 0 1002.8 0 75
2017-09-20 19:00:00 21.2 26 Sur 39 Sur 0 1002.7 -0.4 54
2017-09-20 18:00:00 22.4 25 Sur 39 Sur 0 1002.5 -1.1 51
2017-09-20 17:00:00 23 27 Sur 37 Sur 0 1002.8 -1.3 52
2017-09-20 16:00:00 24 22 Sur 35 Sur 0 1003.1 -1.6 46
2017-09-20 15:00:00 24 23 Sur 33 Sur 0 1003.6 -1.6 48
2017-09-20 14:00:00 23.7 15 Sur 28 Sur 0 1004.1 -1.3 50
2017-09-20 13:00:00 22.5 5 Sur 17 Sur 0 1004.7 -0.8 50
2017-09-20 12:00:00 20.6 3 Este 11 Norte 0 1005.2 -0.2 46
2017-09-20 11:00:00 18.3 2 Nordeste 13 Norte 0 1005.4 0.2 52
2017-09-20 10:00:00 16.1 0 Calma 8 Norte 0 1005.5 0.4 69
2017-09-20 09:00:00 13.9 4 Norte 11 Noroeste 0 1005.4 0.2 79
2017-09-20 08:00:00 10.4 0 Calma 8 Norte 0 1005.2 0 94
2017-09-20 07:00:00 11.2 8 Norte 17 Norte 0 1005.1 -0.2 92
2017-09-20 06:00:00 11.9 7 Norte 13 Norte 0 1005.2 -0.4 87
2017-09-20 05:00:00 11.6 0 Calma 8 Noroeste 0 1005.2 -0.7 89
2017-09-20 04:00:00 12.9 4 Norte 13 Norte 0 1005.3 -0.5 80
2017-09-20 03:00:00 14.1 3 Norte 8 Nordeste 0 1005.6 -0.3 77
2017-09-20 02:00:00 14.2 5 Nordeste 17 Norte 0 1005.9 -0.1 83
2017-09-20 01:00:00 14 10 Norte 21 Este 0 1005.8 0 93
2017-09-20 00:00:00 14.7 2 Noroeste 5 Noroeste 0 1005.9 0.8 89
2017-09-19 23:00:00 15.4 3 Norte 11 Norte 0 1006 1.6 87
2017-09-19 22:00:00 15.5 4 Nordeste 5 Nordeste 0 1005.8 1.8 88
2017-09-19 21:00:00 17.3 4 Oeste 13 Sudoeste 0 1005.1 1.4 78
2017-09-19 20:00:00 18.4 8 Sudoeste 22 Sudoeste 0 1004.4 0.9 70
2017-09-19 19:00:00 19.1 14 Sudoeste 28 Sur 0 1004 0.5 68
2017-09-19 18:00:00 20.4 17 Sur 28 Sur 0 1003.7 0.1 64
2017-09-19 17:00:00 21.7 18 Sur 26 Sur 0 1003.5 -0.4 59
2017-09-19 16:00:00 22.4 19 Sur 26 Sur 0 1003.5 -0.6 54
2017-09-19 15:00:00 21.1 14 Nordeste 22 Nordeste 0 1003.6 -0.8 50
2017-09-19 14:00:00 21.7 5 Sudeste 17 Nordeste 0 1003.9 -0.9 53
2017-09-19 13:00:00 20.7 5 Nordeste 15 Este 0 1004.1 -0.4 53
2017-09-19 12:00:00 19.1 8 Nordeste 22 Nordeste 0 1004.4 0.3 55
2017-09-19 11:00:00 16.5 13 Nordeste 21 Nordeste 0 1004.8 0.7 67
2017-09-19 10:00:00 15.1 10 Norte 17 Nordeste 0 1004.5 0.4 80
2017-09-19 09:00:00 12.9 4 Norte 13 Norte 0 1004.1 0.4 95
2017-09-19 08:00:00 11.2 5 Nordeste 11 Norte 0 1004.1 0.4 97
2017-09-19 07:00:00 12 4 Norte 18 Nordeste 0 1004.1 0.4 98
2017-09-19 06:00:00 11.5 5 Norte 13 Norte 0 1003.7 -0.2 99
2017-09-19 05:00:00 11.1 3 Norte 8 Nordeste 0 1003.7 -0.2 98
2017-09-19 04:00:00 11.6 0 Calma 13 Noroeste 0 1003.7 -0.3 98
2017-09-19 03:00:00 12.3 4 Norte 11 Norte 0 1003.9 -0.2 98
2017-09-19 02:00:00 12.2 0 Calma 5 Noroeste 0 1003.9 0.2 97
2017-09-19 01:00:00 13 0 Calma 4 Nordeste 0 1004 0.4 97
2017-09-19 00:00:00 13.6 3 Nordeste 8 Nordeste 0 1004.1 1.2 96
2017-09-18 23:00:00 14.8 2 Oeste 11 Oeste 0 1003.7 1.8 95
2017-09-18 22:00:00 15.1 3 Oeste 11 Nordeste 2.1 1003.6 2.3 94
2017-09-18 21:00:00 16.4 6 Nordeste 18 Este 0.5 1002.9 2.4 84
2017-09-18 20:00:00 17.6 9 Este 15 Este 0 1001.9 1.6 75
2017-09-18 19:00:00 18.5 0 Calma 11 Este 0 1001.3 0.8 68
2017-09-18 18:00:00 18.9 6 Este 11 Este 0 1000.5 -0.6 68
2017-09-18 17:00:00 18.9 0 Calma 17 Nordeste 0 1000.3 -1.3 65
2017-09-18 16:00:00 18.5 8 Este 18 Este 0 1000.5 -1.5 70
2017-09-18 15:00:00 17.9 7 Nordeste 17 Norte 0 1001.1 -0.8 75
2017-09-18 14:00:00 16.6 0 Calma 13 Nordeste 0 1001.6 0 81
2017-09-18 13:00:00 14.5 10 Nordeste 15 Norte 0.1 1002 0.6 91
2017-09-18 12:00:00 13.8 5 Nordeste 15 Nordeste 2.3 1001.9 0.8 95
2017-09-18 11:00:00 14.6 6 Noroeste 15 Noroeste 0 1001.6 0.4 85
2017-09-18 10:00:00 14.7 4 Norte 13 Norte 0 1001.4 0.3 84
2017-09-18 09:00:00 13 2 Nordeste 8 Nordeste 0 1001.1 0 88
2017-09-18 08:00:00 12.7 0 Calma 4 Nordeste 0 1001.2 -0.1 89
2017-09-18 07:00:00 12 0 Calma 5 Norte 0 1001.1 -0.3 92
2017-09-18 06:00:00 11.4 0 Calma 4 Norte 0 1001.1 -1 91
2017-09-18 05:00:00 12.3 0 Calma 11 Norte 0 1001.3 -1.3 87
2017-09-18 04:00:00 12.7 3 Norte 13 Noroeste 0 1001.4 -1.6 84
2017-09-18 03:00:00 13.8 9 Norte 13 Noroeste 0 1002.1 -0.9 79
2017-09-18 02:00:00 13.9 5 Noroeste 11 Noroeste 0 1002.6 -0.3 80
2017-09-18 01:00:00 15 4 Norte 13 Norte 0 1003 0.4 69
2017-09-18 00:00:00 15.3 3 Norte 11 Norte 0 1003 1.1 72
2017-09-17 23:00:00 16.2 5 Norte 18 Norte 0 1002.9 2.1 74
2017-09-17 22:00:00 16.4 12 Norte 21 Norte 0 1002.6 2.5 78
2017-09-17 21:00:00 16.9 14 Norte 28 Nordeste 0 1001.9 2.1 76
2017-09-17 20:00:00 17.6 18 Nordeste 30 Norte 0 1000.8 1.4 74
2017-09-17 19:00:00 19.1 18 Nordeste 28 Nordeste 0 1000.1 0.4 71
2017-09-17 18:00:00 21.5 15 Nordeste 24 Nordeste 0 999.8 -0.5 58
2017-09-17 17:00:00 23.4 11 Nordeste 35 Oeste 0 999.4 -1.4 48
2017-09-17 16:00:00 25.4 17 Oeste 37 Oeste 0 999.7 -1.7 26
2017-09-17 15:00:00 24.6 25 Oeste 41 Sudoeste 0 1000.3 -1.6 27
2017-09-17 14:00:00 23.6 14 Sur 30 Sudoeste 0 1000.8 -1.5 35
2017-09-17 13:00:00 21.6 4 Este 17 Este 0 1001.4 -0.6 42
2017-09-17 12:00:00 20.2 3 Sur 11 Sudeste 0 1001.9 0.2 48
2017-09-17 11:00:00 18.8 3 Este 11 Este 0 1002.3 0.8 55
2017-09-17 10:00:00 14.9 0 Calma 5 Este 0 1002 0.9 73
2017-09-17 09:00:00 11.5 2 Sudoeste 5 Sudoeste 0 1001.7 0.9 89
2017-09-17 08:00:00 9.4 2 Sudoeste 5 Sudoeste 0 1001.5 0.5 98
2017-09-17 07:00:00 8.8 0 Calma 2 Oeste 0 1001.1 0.2 98
2017-09-17 06:00:00 8.2 0 Calma 2 Este 0 1000.8 0.1 97
2017-09-17 05:00:00 8.2 0 Calma 4 Sudeste 0 1001 0.1 97
2017-09-17 04:00:00 9 0 Calma 11 Oeste 0 1000.9 0 95
2017-09-17 03:00:00 9.4 6 Oeste 11 Oeste 0 1000.7 -0.3 95
2017-09-17 02:00:00 10.1 2 Oeste 8 Norte 0 1000.9 0.4 94
2017-09-17 01:00:00 11.3 6 Norte 15 Nordeste 0 1000.9 1 93
2017-09-17 00:00:00 11.7 3 Norte 15 Norte 0 1001 1.6 88
2017-09-16 23:00:00 12.9 6 Nordeste 18 Norte 0 1000.5 1.8 83
2017-09-16 22:00:00 12.5 2 Norte 15 Norte 0 999.9 2.2 85
2017-09-16 21:00:00 12.2 6 Norte 17 Nordeste 0 999.4 2.7 88
2017-09-16 20:00:00 12.7 10 Nordeste 42 Nordeste 0.2 998.7 2.3 89
2017-09-16 19:00:00 15.5 27 Norte 46 Nordeste 0 997.7 1.1 71
2017-09-16 18:00:00 20 21 Sur 37 Sur 0 996.7 -0.2 55
2017-09-16 17:00:00 20.9 23 Sur 42 Sur 0 996.4 -1 55
2017-09-16 16:00:00 20.9 24 Sur 42 Sur 0 996.6 -1.4 57
2017-09-16 15:00:00 20.8 26 Sur 37 Sur 0 996.9 -1.6 59
2017-09-16 14:00:00 20.4 11 Sur 22 Sur 0 997.4 -1.2 58
2017-09-16 13:00:00 19.4 4 Este 11 Nordeste 0 998 -0.3 59
2017-09-16 12:00:00 17.6 2 Nordeste 15 Nordeste 0 998.5 0.4 63
2017-09-16 11:00:00 16.1 4 Nordeste 13 Nordeste 0 998.6 1 69
2017-09-16 10:00:00 13.3 5 Norte 13 Norte 0 998.3 1.1 86
2017-09-16 09:00:00 10 3 Nordeste 5 Norte 0 998.1 0.8 99
2017-09-16 08:00:00 7.3 0 Calma 4 Nordeste 0 997.6 0.5 99
2017-09-16 07:00:00 7.1 0 Calma 4 Noroeste 0 997.2 0.1 99
2017-09-16 06:00:00 7.5 2 Sudoeste 4 Sudoeste 0 997.3 -0.2 99
2017-09-16 05:00:00 8 0 Calma 4 Nordeste 0 997.1 -0.7 99
2017-09-16 04:00:00 8.8 0 Calma 8 Nordeste 0 997.1 -1.3 99
2017-09-16 03:00:00 9.3 0 Calma 5 Oeste 0 997.5 -1 98
2017-09-16 02:00:00 10.6 3 Noroeste 5 Noroeste 0 997.8 -1 98
2017-09-16 01:00:00 10.8 2 Oeste 4 Oeste 0 998.4 -0.1 98
2017-09-16 00:00:00 11.6 0 Calma 11 Este 0 998.5 0.7 97
2017-09-15 23:00:00 12.3 0 Calma 9 Sudoeste 0 998.8 0.8 98
2017-09-15 22:00:00 12.1 2 Sudoeste 8 Sudoeste 0 998.5 0.3 97
2017-09-15 21:00:00 12 0 Calma 8 Norte 0 997.8 0.2 95
2017-09-15 20:00:00 12.4 2 Oeste 17 Nordeste 0.8 998 -0.3 95
2017-09-15 19:00:00 13.5 12 Nordeste 17 Nordeste 0.3 998.2 -0.6 90
2017-09-15 18:00:00 14.1 5 Nordeste 11 Este 0.5 997.6 -1.2 94
2017-09-15 17:00:00 14.1 4 Nordeste 8 Nordeste 0.7 998.3 -1.1 93
2017-09-15 16:00:00 13.8 3 Norte 13 Nordeste 0.4 998.8 -1.1 92
2017-09-15 15:00:00 14 4 Nordeste 11 Nordeste 0.2 998.8 -1.8 90
2017-09-15 14:00:00 13.7 0 Calma 13 Norte 1.3 999.4 -1.5 93
2017-09-15 13:00:00 12.8 6 Norte 17 Nordeste 1.1 999.9 -0.8 96
2017-09-15 12:00:00 12.6 14 Nordeste 26 Norte 0.1 1000.6 0 94
2017-09-15 11:00:00 12.5 13 Norte 26 Norte 0.3 1000.9 0.7 94
2017-09-15 10:00:00 12.8 8 Nordeste 18 Norte 0 1000.7 0.4 94
2017-09-15 09:00:00 13.2 4 Norte 17 Nordeste 0 1000.6 0.5 94
2017-09-15 08:00:00 13.3 8 Norte 15 Norte 0 1000.2 -0.3 95
2017-09-15 07:00:00 13.1 6 Norte 22 Nordeste 0.1 1000.3 -0.7 96
2017-09-15 06:00:00 13.3 15 Nordeste 24 Nordeste 0.2 1000.1 -1 97
2017-09-15 05:00:00 13.9 6 Nordeste 13 Nordeste 1.3 1000.5 -0.6 96
2017-09-15 04:00:00 14.3 0 Calma 8 Oeste 6.9 1001 -0.6 92
2017-09-15 03:00:00 15.1 2 Oeste 8 Norte 0.8 1001.1 -1 87
2017-09-15 02:00:00 15.3 0 Calma 18 Nordeste 0 1001.1 -1.1 77
2017-09-15 01:00:00 15.7 9 Norte 17 Norte 0 1001.6 -0.7 73
2017-09-15 00:00:00 16 7 Norte 13 Norte 0 1002.1 -0.3 71
2017-09-14 23:00:00 16.1 0 Calma 13 Nordeste 0 1002.2 1.2 71
2017-09-14 22:00:00 15.8 12 Nordeste 28 Nordeste 0 1002.3 1.8 73
2017-09-14 21:00:00 16.4 15 Nordeste 33 Nordeste 0 1002.4 2.4 67
2017-09-14 20:00:00 17.9 19 Nordeste 35 Nordeste 0 1001 1.2 62
2017-09-14 19:00:00 19.2 22 Nordeste 35 Este 0 1000.5 0.3 54
2017-09-14 18:00:00 21.4 23 Nordeste 32 Nordeste 0 1000 -0.5 47
2017-09-14 17:00:00 23.5 18 Nordeste 28 Nordeste 0 999.8 -0.7 47
2017-09-14 16:00:00 22.8 18 Nordeste 33 Este 0 1000.2 -0.6 49
2017-09-14 15:00:00 22.6 14 Nordeste 37 Nordeste 0 1000.5 -0.7 52
2017-09-14 14:00:00 26.7 12 Este 26 Norte 0 1000.5 -0.6 51
2017-09-14 13:00:00 26.6 17 Nordeste 30 Norte 0 1000.8 0.4 53
2017-09-14 12:00:00 25.3 21 Nordeste 35 Nordeste 0 1001.2 1.2 58
2017-09-14 11:00:00 24.1 17 Nordeste 24 Nordeste 0 1001.1 1.1 62
2017-09-14 10:00:00 23.5 4 Este 8 Este 0 1000.4 0.5 65
2017-09-14 09:00:00 19 3 Nordeste 8 Nordeste 0 1000 -0.3 81
2017-09-14 08:00:00 15.6 2 Oeste 5 Oeste 0 1000 -0.7 90
2017-09-14 07:00:00 14.7 2 Oeste 8 Oeste 0 999.9 -1.4 93
2017-09-14 06:00:00 14.8 0 Calma 8 Oeste 0 1000.3 -1.7 95
2017-09-14 05:00:00 15.6 0 Calma 5 Oeste 0 1000.7 -1.8 94
2017-09-14 04:00:00 15.8 0 Calma -- -- 0 1001.3 -1.6 94
2017-09-14 03:00:00 16.4 0 Calma -- -- 0 1002 -1.3 92
2017-09-14 02:00:00 17.2 2 Noroeste 8 Oeste 0 1002.5 -1 91
2017-09-14 01:00:00 17.8 0 Calma 5 Nordeste 0 1002.9 -0.5 88
2017-09-14 00:00:00 18.7 0 Calma 8 Sur 0 1003.3 0.3 83
2017-09-13 23:00:00 20.6 5 Sur 9 Sur 0 1003.5 1.4 78
2017-09-13 22:00:00 22.1 0 Calma 28 Sur 0 1003.4 1.3 72
2017-09-13 21:00:00 22.6 15 Sur 30 Sur 0 1003 0.6 71
2017-09-13 20:00:00 24.4 23 Sudoeste 39 Sudoeste 0 1002.1 -0.9 63
2017-09-13 19:00:00 26.1 26 Sur 42 Sur 0 1002.1 -1.7 58
2017-09-13 18:00:00 27.2 31 Sur 41 Sur 0 1002.4 -2.4 52
2017-09-13 17:00:00 28.4 26 Sur 39 Sur 0 1003 -2.4 47
2017-09-13 16:00:00 28.3 30 Sur 39 Sur 0 1003.8 -2.4 45
2017-09-13 15:00:00 27.7 20 Sur 32 Sur 0 1004.8 -1.8 51
2017-09-13 14:00:00 28 14 Sur 24 Sur 0 1005.4 -1.6 44
2017-09-13 13:00:00 26.9 10 Sur 24 Sudoeste 0 1006.2 -0.4 48
2017-09-13 12:00:00 25.3 9 Sur 18 Sur 0 1006.6 0.4 56
2017-09-13 11:00:00 23.5 2 Este 8 Este 0 1007 1 61
2017-09-13 10:00:00 20.8 4 Este 8 Este 0 1006.6 1 73
2017-09-13 09:00:00 17.2 0 Calma 13 Sur 0 1006.2 0.8 85
2017-09-13 08:00:00 13.7 4 Oeste 8 Noroeste 0 1006 0.8 97
2017-09-13 07:00:00 14 0 Calma 8 Nordeste 0 1005.6 0.2 96
2017-09-13 06:00:00 14.2 0 Calma 4 Este 0 1005.4 -0.1 96
2017-09-13 05:00:00 14.9 0 Calma 4 Norte 0 1005.2 -0.3 93
2017-09-13 04:00:00 15.1 0 Calma 4 Oeste 0 1005.4 0.1 92
2017-09-13 03:00:00 16.4 3 Oeste 5 Oeste 0 1005.5 0.3 90
2017-09-13 02:00:00 17.1 2 Oeste 8 Sur 0 1005.5 0.7 89
2017-09-13 01:00:00 17.8 5 Sur 5 Sur 0 1005.3 0.9 87
2017-09-13 00:00:00 18.3 4 Oeste 15 Sudoeste 0 1005.2 1.7 83
2017-09-12 23:00:00 19.2 10 Sudoeste 17 Sur 0 1004.8 2.5 78
2017-09-12 22:00:00 19.7 6 Sudoeste 18 Sudoeste 0 1004.4 2.7 73
2017-09-12 21:00:00 19.9 10 Sudoeste 22 Sur 0 1003.5 2.1 71
2017-09-12 20:00:00 20.2 14 Sur 24 Sur 0 1002.3 1.2 68
2017-09-12 19:00:00 20.7 14 Sur 30 Sur 0 1001.7 1.1 66
2017-09-12 18:00:00 21.1 20 Sur 32 Sur 0 1001.4 0.8 65
2017-09-12 17:00:00 22.1 20 Sur 28 Sur 0 1001.1 0.5 60
2017-09-12 16:00:00 21.9 19 Sur 30 Sur 0 1000.6 0 61
2017-09-12 15:00:00 22.6 19 Sur 28 Sur 0 1000.6 0.1 59
2017-09-12 14:00:00 22.5 0 Calma 21 Sudoeste 0 1000.6 0.4 60
2017-09-12 13:00:00 22 9 Sur 18 Sudeste 0 1000.6 1.1 61
2017-09-12 12:00:00 21.5 3 Sur 9 Sur 0 1000.5 1.9 61
2017-09-12 11:00:00 18.6 2 Sur 5 Sur 0 1000.2 2.2 69
2017-09-12 10:00:00 17.5 0 Calma 8 Norte 0 999.5 2.2 73
2017-09-12 09:00:00 16.9 0 Calma 13 Nordeste 0.1 998.6 1.8 78
2017-09-12 08:00:00 17.2 9 Norte 13 Norte 0 998 1.2 69
2017-09-12 07:00:00 17.4 3 Este 8 Nordeste 0 997.3 0.6 72
2017-09-12 06:00:00 17.6 4 Nordeste 8 Nordeste 0 996.8 0.1 75
2017-09-12 05:00:00 18.2 0 Calma 4 Oeste 0 996.8 0.4 74
2017-09-12 04:00:00 18.4 0 Calma 8 Este 0 996.7 0.4 73
2017-09-12 03:00:00 18.5 7 Nordeste 13 Nordeste 0 996.7 0.3 71
2017-09-12 02:00:00 18.7 8 Nordeste 13 Nordeste 0 996.4 0.2 72
2017-09-12 01:00:00 18.6 6 Nordeste 11 Nordeste 0 996.3 0.4 79
2017-09-12 00:00:00 19.9 2 Noroeste 5 Noroeste 0 996.4 0.8 79
2017-09-11 23:00:00 20.2 0 Calma 5 Nordeste 0 996.2 1 79
2017-09-11 22:00:00 20.5 0 Calma 8 Sudoeste 0 995.9 1.2 76
2017-09-11 21:00:00 20.7 0 Calma 18 Sur 0 995.6 1.4 73
2017-09-11 20:00:00 21.3 13 Sur 21 Sur 0 995.2 1.4 68
2017-09-11 19:00:00 22.1 14 Sur 22 Sur 0 994.7 0.8 64
2017-09-11 18:00:00 23.3 15 Sur 26 Sudoeste 0 994.2 0.2 60
2017-09-11 17:00:00 24.5 9 Sur 28 Sudeste 0 993.8 -0.4 49
2017-09-11 16:00:00 25 13 Sudeste 32 Sur 0 993.9 -0.3 49
2017-09-11 15:00:00 26.6 15 Sudeste 30 Nordeste 0 994 -0.3 47
2017-09-11 14:00:00 26.6 4 Sudoeste 17 Norte 0 994.2 0 42
2017-09-11 13:00:00 25 5 Nordeste 21 Nordeste 0 994.2 0.4 41
2017-09-11 12:00:00 23.6 11 Nordeste 22 Nordeste 0 994.3 0.5 40
2017-09-11 11:00:00 21.8 17 Nordeste 22 Nordeste 0 994.2 0.7 52
2017-09-11 10:00:00 19.8 2 Norte 15 Nordeste 0 993.8 0.6 61
2017-09-11 09:00:00 16.1 7 Norte 17 Nordeste 0 993.8 0.6 82
2017-09-11 08:00:00 12.3 0 Calma 8 Sudoeste 0 993.5 -0.1 95
2017-09-11 07:00:00 12.5 0 Calma 8 Oeste 0 993.2 -0.5 93
2017-09-11 06:00:00 13.2 0 Calma 5 Oeste 0 993.2 -0.9 94
2017-09-11 05:00:00 13.7 4 Nordeste 5 Nordeste 0 993.6 -0.5 94
2017-09-11 04:00:00 14.1 0 Calma 8 Este 0 993.7 -0.7 94
2017-09-11 03:00:00 14.1 0 Calma 8 Norte 0 994.1 -0.3 93
2017-09-11 02:00:00 14.7 0 Calma 4 Nordeste 0 994.1 -0.5 92
2017-09-11 01:00:00 14.3 3 Oeste 5 Nordeste 0 994.4 0 91
2017-09-11 00:00:00 14.8 4 Nordeste 8 Este 0 994.4 0.3 91
2017-09-10 23:00:00 15.9 4 Oeste 9 Oeste 0 994.6 1.2 81
2017-09-10 22:00:00 16.4 5 Oeste 11 Oeste 0 994.4 1.4 81
2017-09-10 21:00:00 18.1 5 Oeste 18 Sudoeste 0 994.1 1.7 73
2017-09-10 20:00:00 20 14 Sudoeste 24 Sur 0 993.4 1.2 65
2017-09-10 19:00:00 22.1 16 Sur 26 Sur 0 993 0.9 55
2017-09-10 18:00:00 23.7 15 Sur 26 Sur 0 992.4 0.4 49
2017-09-10 17:00:00 24.3 16 Sur 32 Sur 0 992.2 0.3 50
2017-09-10 16:00:00 24.4 12 Sur 26 Sur 0 992.1 -0.2 44
2017-09-10 15:00:00 24.2 5 Sudeste 17 Sur 0 992 -0.3 40
2017-09-10 14:00:00 23 7 Sur 18 Sur 0 991.9 -0.3 43
2017-09-10 13:00:00 22.4 4 Sur 18 Sudoeste 0 992.3 0.7 44
2017-09-10 12:00:00 20.4 5 Este 15 Este 0 992.3 0.9 50
2017-09-10 11:00:00 18.4 5 Este 11 Este 0 992.2 1.2 77
2017-09-10 10:00:00 15.8 0 Calma 5 Este 0 991.6 1 86
2017-09-10 09:00:00 12.6 0 Calma 2 Sur 0 991.4 1.3 96
2017-09-10 08:00:00 10.9 2 Sur 11 Noroeste 0 991 1.1 98
2017-09-10 07:00:00 11.2 5 Norte 13 Noroeste 0 990.6 0.3 99
2017-09-10 06:00:00 12 8 Nordeste 13 Nordeste 0 990.1 -0.1 99
2017-09-10 05:00:00 11.8 2 Nordeste 5 Oeste 0 989.9 -0.3 98
2017-09-10 04:00:00 12.5 3 Oeste 5 Oeste 0 990.3 0 98
2017-09-10 03:00:00 13.1 2 Nordeste 5 Norte 0 990.2 -0.3 97
2017-09-10 02:00:00 13.6 5 Noroeste 15 Noroeste 0 990.2 -0.6 98
2017-09-10 01:00:00 14.2 0 Calma 13 Oeste 0.6 990.3 -0.7 96
2017-09-10 00:00:00 13.9 5 Oeste 13 Oeste 0 990.5 -0.1 95
2017-09-09 23:00:00 13.9 0 Calma 8 Norte 0 990.8 0.6 95
2017-09-09 22:00:00 14 3 Oeste 8 Oeste 0 991 0.4 95
2017-09-09 21:00:00 14 2 Noroeste 13 Oeste 0 990.6 0 93
2017-09-09 20:00:00 14.2 3 Norte 17 Norte 0 990.2 0.1 95
2017-09-09 19:00:00 14.2 5 Norte 15 Nordeste 0 990.6 0.4 94
2017-09-09 18:00:00 14.3 3 Oeste 13 Nordeste 0.1 990.6 0.7 92
2017-09-09 17:00:00 14.1 5 Nordeste 21 Este 2.1 990.1 0.7 96
2017-09-09 16:00:00 14.2 8 Nordeste 22 Nordeste 6 990.2 0.5 98
2017-09-09 15:00:00 14.4 12 Nordeste 28 Nordeste 6 989.9 -0.1 95
2017-09-09 14:00:00 17.7 20 Nordeste 41 Nordeste 0 989.4 -0.6 67
2017-09-09 13:00:00 20.3 33 Nordeste 52 Nordeste 0 989.7 -0.6 58
2017-09-09 12:00:00 22.1 23 Nordeste 32 Nordeste 0 990 -0.5 60
2017-09-09 11:00:00 21.1 13 Norte 18 Nordeste 0 990 -0.5 68
2017-09-09 10:00:00 19.3 12 Nordeste 24 Norte 0 990.3 -0.2 80
2017-09-09 09:00:00 17.7 15 Nordeste 28 Nordeste 0 990.5 -0.1 85
2017-09-09 08:00:00 16.6 17 Nordeste 24 Nordeste 0 990.5 -0.5 91
2017-09-09 07:00:00 15.4 6 Nordeste 11 Nordeste 0 990.5 -0.8 95
2017-09-09 06:00:00 14.4 0 Calma 11 Noroeste 0 990.6 -1.6 95
2017-09-09 05:00:00 13.9 4 Sudoeste 8 Sudoeste 0 991 -2.6 95
2017-09-09 04:00:00 14.5 3 Oeste 11 Noroeste 0 991.3 -2.9 96
2017-09-09 03:00:00 14.5 0 Calma -- -- 0 992.2 -2.7 95
2017-09-09 02:00:00 15.5 0 Calma 5 Oeste 0 993.6 -1.6 94
2017-09-09 01:00:00 16.2 0 Calma 8 Oeste 0 994.2 -1.4 93
2017-09-09 00:00:00 17.5 5 Oeste 11 Oeste 0 994.9 -0.6 91
2017-09-08 23:00:00 19 7 Sudoeste 15 Sudoeste 0 995.2 -0.1 87
2017-09-08 22:00:00 19.3 13 Sur 21 Sudoeste 0 995.6 0.1 86
2017-09-08 21:00:00 20.2 14 Sur 30 Sur 0 995.5 -0.4 80
2017-09-08 20:00:00 21.1 22 Sur 35 Sur 0 995.3 -1.2 74
2017-09-08 19:00:00 22.6 29 Sur 39 Sur 0 995.5 -1.4 66
2017-09-08 18:00:00 23.7 29 Sur 45 Sur 0 995.9 -1.7 61
2017-09-08 17:00:00 24.8 28 Sur 42 Sur 0 996.5 -1.8 57
2017-09-08 16:00:00 25.4 30 Sur 42 Sur 0 996.9 -2 54
2017-09-08 15:00:00 26 24 Sur 37 Sur 0 997.6 -2 50
2017-09-08 14:00:00 25.3 20 Sur 32 Sudoeste 0 998.3 -1.8 53
2017-09-08 13:00:00 24.4 14 Sur 26 Sur 0 998.9 -1.2 51
2017-09-08 12:00:00 22.4 4 Este 13 Este 0 999.6 -0.4 51
2017-09-08 11:00:00 20.6 3 Nordeste 9 Norte 0 1000.1 0.3 55
2017-09-08 10:00:00 19.3 4 Nordeste 11 Norte 0 1000.1 0.5 59
2017-09-08 09:00:00 17.8 4 Norte 8 Norte 0 1000 0.4 65
2017-09-08 08:00:00 16.8 0 Calma 8 Norte 0 999.8 0 71
2017-09-08 07:00:00 17.1 0 Calma 8 Norte 0 999.6 -0.6 67
2017-09-08 06:00:00 16.6 5 Norte 8 Norte 0 999.6 -1 67
2017-09-08 05:00:00 17.8 0 Calma 13 Nordeste 0 999.8 -1.2 63
2017-09-08 04:00:00 18 11 Nordeste 21 Norte 0 1000.2 -0.4 60
2017-09-08 03:00:00 18.6 14 Nordeste 21 Nordeste 0 1000.6 -0.3 60
2017-09-08 02:00:00 19.1 14 Nordeste 18 Nordeste 0 1001 0.2 68
2017-09-08 01:00:00 19.9 0 Calma 2 Este 0 1000.6 -0.1 90
2017-09-08 00:00:00 20 0 Calma 2 Sudoeste 0 1000.9 0.8 88
2017-09-07 23:00:00 20.4 0 Calma 5 Sur 0 1000.8 1.2 85
2017-09-07 22:00:00 20.7 2 Sudeste 13 Sur 0 1000.7 1.3 83
2017-09-07 21:00:00 21.1 7 Sur 18 Sur 0 1000.1 0.9 80
2017-09-07 20:00:00 21.7 14 Sur 24 Sur 0 999.6 0.1 76
2017-09-07 19:00:00 23.4 21 Sur 30 Sur 0 999.4 -0.4 69
2017-09-07 18:00:00 24.9 22 Sur 32 Sur 0 999.2 -0.9 64
2017-09-07 17:00:00 25.8 18 Sur 30 Sur 0 999.5 -1.2 59
2017-09-07 16:00:00 26.6 17 Sur 30 Sur 0 999.8 -2 56
2017-09-07 15:00:00 27 17 Sur 26 Sur 0 1000.1 -2.5 53
2017-09-07 14:00:00 25.9 6 Sudeste 18 Sudeste 0 1000.7 -2 50
2017-09-07 13:00:00 25.1 6 Sur 15 Norte 0 1001.8 -0.6 49
2017-09-07 12:00:00 23.1 9 Nordeste 22 Nordeste 0 1002.6 0.2 50
2017-09-07 11:00:00 21.7 12 Nordeste 18 Nordeste 0 1002.7 0.7 55
2017-09-07 10:00:00 20 12 Nordeste 21 Este 0 1002.4 0.7 63
2017-09-07 09:00:00 17.6 0 Calma 5 Norte 0 1002.4 0.4 81
2017-09-07 08:00:00 16.5 3 Nordeste 17 Nordeste 0 1002 -0.2 89
2017-09-07 07:00:00 16.8 9 Nordeste 17 Norte 0 1001.7 -1.2 89
2017-09-07 06:00:00 17.9 0 Calma 8 Norte 0 1002 -1.5 91
2017-09-07 05:00:00 18.9 0 Calma 11 Este 0 1002.2 -1.8 96
2017-09-07 04:00:00 19.1 4 Este 11 Sudoeste 0 1002.9 -1.3 92
2017-09-07 03:00:00 19.6 4 Nordeste 5 Nordeste 0 1003.5 -0.5 95
2017-09-07 02:00:00 19.7 0 Calma 5 Nordeste 0 1004 -0.5 96
2017-09-07 01:00:00 19.7 0 Calma 5 Norte 0 1004.2 -0.3 96
2017-09-07 00:00:00 19.6 0 Calma 5 Norte 0 1004 -0.4 96
2017-09-06 23:00:00 19.8 4 Este 8 Este 0 1004.5 0.6 96
2017-09-06 22:00:00 20 3 Nordeste 8 Norte 0 1004.5 0.8 94
2017-09-06 21:00:00 20.4 0 Calma 8 Noroeste 0 1004.4 0.2 93
2017-09-06 20:00:00 20.6 0 Calma 5 Oeste 0 1003.9 -0.6 95
2017-09-06 19:00:00 20.5 4 Oeste 15 Oeste 0.5 1003.7 -0.6 94
2017-09-06 18:00:00 20.3 7 Noroeste 21 Sur 4.8 1004.2 -0.9 96
2017-09-06 17:00:00 20.5 9 Norte 30 Nordeste 5 1004.5 -1 92
2017-09-06 16:00:00 25 5 Sudeste 17 Sur 0 1004.3 -1.6 66
2017-09-06 15:00:00 25.2 3 Sur 15 Sudoeste 0 1005.1 -1.1 67
2017-09-06 14:00:00 25.2 4 Norte 15 Nordeste 0 1005.5 -0.7 57
2017-09-06 13:00:00 25.2 10 Nordeste 18 Este 0 1005.9 -0.3 57
2017-09-06 12:00:00 24.7 8 Nordeste 15 Nordeste 0 1006.2 0.1 60
2017-09-06 11:00:00 24.1 4 Nordeste 21 Nordeste 0 1006.2 0.4 63
2017-09-06 10:00:00 23.4 13 Norte 21 Nordeste 0 1006.2 0.7 66
2017-09-06 09:00:00 22.1 12 Nordeste 18 Nordeste 0 1006.1 0.9 72
2017-09-06 08:00:00 21 2 Nordeste 11 Norte 0 1005.8 0.4 81
2017-09-06 07:00:00 20.7 8 Norte 13 Norte 0 1005.5 -0.1 82
2017-09-06 06:00:00 20.1 0 Calma 4 Nordeste 0 1005.2 -0.7 89
2017-09-06 05:00:00 20 0 Calma 8 Nordeste 0 1005.4 -0.4 89
2017-09-06 04:00:00 20.5 0 Calma 5 Este 0 1005.6 -0.2 87
2017-09-06 03:00:00 20.1 0 Calma 4 Nordeste 0 1005.9 0 86
2017-09-06 02:00:00 20.9 0 Calma 4 Oeste 0 1005.8 0.1 87
2017-09-06 01:00:00 22.1 2 Noroeste 8 Nordeste 0 1005.8 0.3 84
2017-09-06 00:00:00 23.1 0 Calma 17 Norte 0 1005.9 0.9 80
2017-09-05 23:00:00 23.6 0 Calma 8 Sudoeste 0 1005.7 1.6 78
2017-09-05 22:00:00 23.8 5 Sudoeste 11 Sur 0 1005.5 1.6 77
2017-09-05 21:00:00 24.6 5 Sur 18 Sur 0 1005 1.5 74
2017-09-05 20:00:00 26.1 12 Sur 26 Sur 0 1004.1 0.8 63
2017-09-05 19:00:00 28.5 18 Sur 32 Sur 0 1003.9 0.6 50
2017-09-05 18:00:00 30.2 22 Sur 32 Sur 0 1003.5 -0.3 45
2017-09-05 17:00:00 31.6 23 Sur 37 Sur 0 1003.3 -0.7 41
2017-09-05 16:00:00 32.5 25 Sur 35 Sur 0 1003.3 -1.2 36
2017-09-05 15:00:00 32.4 24 Sur 39 Sur 0 1003.8 -1.3 37
2017-09-05 14:00:00 32.8 22 Sur 35 Sur 0 1004 -1.4 33
2017-09-05 13:00:00 32.2 16 Sur 33 Sur 0 1004.5 -1 27
2017-09-05 12:00:00 30.3 17 Sur 35 Sur 0 1005.1 -0.5 34
2017-09-05 11:00:00 26.7 4 Sur 13 Sur 0 1005.4 0.1 52
2017-09-05 10:00:00 23.7 3 Sur 8 Sur 0 1005.5 0.6 64
2017-09-05 09:00:00 19.8 0 Calma 5 Sudoeste 0 1005.6 1.1 78
2017-09-05 08:00:00 15.9 3 Sur 4 Sur 0 1005.3 0.8 91
2017-09-05 07:00:00 15.4 0 Calma 4 Sudoeste 0 1004.9 0.1 92
2017-09-05 06:00:00 15.6 4 Oeste 8 Oeste 0 1004.5 -0.4 92
2017-09-05 05:00:00 16.2 0 Calma 4 Sudoeste 0 1004.5 -0.4 90
2017-09-05 04:00:00 16.4 0 Calma 4 Sudoeste 0 1004.8 -0.1 89
2017-09-05 03:00:00 17.3 0 Calma 5 Noroeste 0 1004.9 0 87
2017-09-05 02:00:00 17.9 3 Noroeste 8 Norte 0 1004.9 0.1 84
2017-09-05 01:00:00 18.5 0 Calma 4 Noroeste 0 1004.9 0.5 86
2017-09-05 00:00:00 19.3 0 Calma 5 Noroeste 0 1004.9 1.3 83
2017-09-04 23:00:00 20.5 3 Oeste 8 Oeste 0 1004.8 1.9 79
2017-09-04 22:00:00 21.6 4 Sudoeste 11 Sudoeste 0 1004.4 2.1 75
2017-09-04 21:00:00 22.8 9 Sudoeste 22 Sudoeste 0 1003.6 1.8 69
2017-09-04 20:00:00 24.2 16 Sur 24 Sur 0 1002.9 1.6 60
2017-09-04 19:00:00 26.6 10 Sur 21 Sudeste 0 1002.3 0.9 46
2017-09-04 18:00:00 27.1 14 Sur 28 Sudoeste 0 1001.8 0.6 42
2017-09-04 17:00:00 28.9 19 Sudoeste 28 Sudoeste 0 1001.3 0.3 39
2017-09-04 16:00:00 29.4 17 Sudeste 32 Sudeste 0 1001.4 0.4 34
2017-09-04 15:00:00 29.7 20 Sudeste 32 Sur 0 1001.2 0.3 33
2017-09-04 14:00:00 29.8 8 Sudeste 24 Sur 0 1001 0.2 33
2017-09-04 13:00:00 27.6 6 Sudeste 21 Sudeste 0 1001 0.9 41
2017-09-04 12:00:00 26.1 6 Nordeste 18 Nordeste 0 1000.9 1.5 46
2017-09-04 11:00:00 24.3 4 Nordeste 13 Nordeste 0 1000.8 1.8 49
2017-09-04 10:00:00 20.7 4 Norte 15 Norte 0 1000.1 1.5 66
2017-09-04 09:00:00 19.1 5 Norte 8 Nordeste 0 999.4 1.8 82
2017-09-04 08:00:00 17.9 4 Norte 5 Norte 0 999 1.6 88
2017-09-04 07:00:00 17.8 2 Norte 8 Norte 0 998.6 0.9 92
2017-09-04 06:00:00 17.8 0 Calma 13 Norte 0 997.6 -0.3 90
2017-09-04 05:00:00 17.6 0 Calma 5 Nordeste 0 997.4 -0.9 88
2017-09-04 04:00:00 18 0 Calma 4 Nordeste 0 997.7 -0.8 86
2017-09-04 03:00:00 17.9 0 Calma 8 Oeste 0 997.9 -0.6 86
2017-09-04 02:00:00 18.2 0 Calma 5 Este 0 998.3 -0.4 83
2017-09-04 01:00:00 18.3 3 Este 8 Este 0 998.5 -0.4 84
2017-09-04 00:00:00 18.5 0 Calma 8 Oeste 0 998.5 0 82
2017-09-03 23:00:00 19.1 3 Oeste 5 Oeste 0 998.7 0.6 79
2017-09-03 22:00:00 19.9 2 Sudoeste 8 Sur 0 998.9 0.8 75
2017-09-03 21:00:00 20.7 7 Sudoeste 15 Sur 0 998.5 0.7 71
2017-09-03 20:00:00 22 6 Sur 18 Sur 0 998.1 0.1 65
2017-09-03 19:00:00 22.6 14 Sur 21 Sudeste 0 998.1 -0.3 61
2017-09-03 18:00:00 23.4 12 Sur 22 Sudoeste 0 997.8 -1.3 56
2017-09-03 17:00:00 23.8 13 Sur 28 Sur 0 998 -0.8 54
2017-09-03 16:00:00 24.9 18 Sur 28 Sur 0 998.4 -1.4 50
2017-09-03 15:00:00 24.2 18 Sur 28 Sur 0 999.1 -1.3 49
2017-09-03 14:00:00 24.8 20 Sur 32 Sur 0 998.8 -2.1 46
2017-09-03 13:00:00 24.6 9 Sudoeste 22 Sur 0 999.8 -1.4 45
2017-09-03 12:00:00 24.7 6 Sur 17 Sudeste 0 1000.4 -0.9 46
2017-09-03 11:00:00 22.6 3 Norte 13 Nordeste 0 1000.9 -0.5 51
2017-09-03 10:00:00 21.2 0 Calma 8 Nordeste 0 1001.2 -0.4 57
2017-09-03 09:00:00 18.9 0 Calma 5 Noroeste 0 1001.3 -0.7 69
2017-09-03 08:00:00 17.3 2 Noroeste 8 Noroeste 0 1001.4 -0.9 79
2017-09-03 07:00:00 17.2 3 Noroeste 5 Noroeste 0 1001.6 -1.3 81
2017-09-03 06:00:00 16.8 0 Calma 5 Norte 0 1002 -1.5 84
2017-09-03 05:00:00 16.1 0 Calma 5 Nordeste 0 1002.3 -1.6 87
2017-09-03 04:00:00 16.6 0 Calma 8 Norte 0 1002.9 -1.4 85
2017-09-03 03:00:00 17.8 0 Calma 11 Noroeste 0 1003.5 -1.2 83
2017-09-03 02:00:00 17.8 6 Noroeste 11 Norte 0 1003.9 -0.7 82
2017-09-03 01:00:00 18.4 0 Calma 5 Oeste 0 1004.3 0.2 83
2017-09-03 00:00:00 19.5 0 Calma 9 Sudeste 0 1004.7 1.1 75
2017-09-02 23:00:00 19.8 2 Este 8 Sudeste 0 1004.6 1.9 75
2017-09-02 22:00:00 20 5 Sudeste 13 Sur 0 1004.1 1.5 74
2017-09-02 21:00:00 20.9 9 Sur 26 Sur 0 1003.6 1.2 71
2017-09-02 20:00:00 22.3 22 Sur 33 Sur 0 1002.7 0.3 57
2017-09-02 19:00:00 24.1 24 Sur 35 Sur 0 1002.6 0.3 51
2017-09-02 18:00:00 25.2 20 Sur 33 Sur 0 1002.4 -0.2 46
2017-09-02 17:00:00 26.7 22 Sur 33 Sur 0 1002.4 -0.4 44
2017-09-02 16:00:00 26.7 23 Sur 35 Sur 0 1002.3 -1.3 44
2017-09-02 15:00:00 27.4 17 Sur 28 Sur 0 1002.6 -1.4 35
2017-09-02 14:00:00 26.6 6 Sur 21 Sur 0 1002.8 -1.3 34
2017-09-02 13:00:00 25.7 0 Calma 18 Sur 0 1003.6 -0.5 33
2017-09-02 12:00:00 24.2 3 Este 17 Este 0 1004 0 42
2017-09-02 11:00:00 22.1 4 Este 9 Nordeste 0 1004.1 0.6 47
2017-09-02 10:00:00 19.5 4 Nordeste 11 Nordeste 0 1004.1 1 61
2017-09-02 09:00:00 17.8 3 Norte 11 Oeste 0 1004 1 66
2017-09-02 08:00:00 14.4 4 Noroeste 8 Norte 0 1003.5 0.6 86
2017-09-02 07:00:00 14 0 Calma 5 Norte 0 1003.1 0.4 91
2017-09-02 06:00:00 15.2 3 Norte 5 Norte 0 1003 0 90
2017-09-02 05:00:00 16 0 Calma 13 Norte 0 1002.9 -0.1 87
2017-09-02 04:00:00 16.7 5 Norte 15 Norte 0.4 1002.7 -0.3 83
2017-09-02 03:00:00 17.1 9 Nordeste 18 Nordeste 0 1003 -0.1 75
2017-09-02 02:00:00 16.6 6 Nordeste 13 Norte 0 1003 0 82
2017-09-02 01:00:00 17.4 6 Nordeste 11 Este 0 1003 0.3 72
2017-09-02 00:00:00 18 2 Sur 8 Sudoeste 0 1003.1 0.9 79
2017-09-01 23:00:00 19 5 Sudoeste 13 Sudoeste 0 1003 1.1 74
2017-09-01 22:00:00 19.7 4 Sudoeste 11 Sur 0 1002.7 1.1 69
2017-09-01 21:00:00 20.6 4 Sur 17 Sudoeste 0 1002.2 0.9 64
2017-09-01 20:00:00 21.9 10 Sur 21 Sudoeste 0 1001.9 0.4 60
2017-09-01 19:00:00 23.1 10 Sudoeste 18 Sudoeste 0 1001.6 0.2 56
2017-09-01 18:00:00 23.7 10 Sur 21 Sudeste 0 1001.3 -0.5 50
2017-09-01 17:00:00 23.7 12 Este 24 Este 0 1001.5 -0.7 50
2017-09-01 16:00:00 25.4 12 Sudeste 24 Sudeste 0 1001.4 -1.5 49
2017-09-01 15:00:00 25 6 Este 24 Sudeste 0 1001.8 -1.6 49
2017-09-01 14:00:00 24.2 9 Nordeste 22 Este 0 1002.2 -1.1 52
2017-09-01 13:00:00 23.1 8 Nordeste 24 Nordeste 0 1002.9 -0.5 57
2017-09-01 12:00:00 22.9 11 Nordeste 21 Nordeste 0 1003.4 0 55
2017-09-01 11:00:00 22 6 Este 17 Nordeste 0 1003.3 -0.2 59
2017-09-01 10:00:00 20.2 8 Nordeste 18 Nordeste 0 1003.4 0.1 73
2017-09-01 09:00:00 18.7 0 Calma 5 Norte 0 1003.4 0.3 84
2017-09-01 08:00:00 15.3 5 Norte 8 Noroeste 0 1003.5 0.2 97
2017-09-01 07:00:00 15.1 0 Calma 5 Oeste 0 1003.3 0.1 97
2017-09-01 06:00:00 15.7 0 Calma -- -- 0 1003.1 0 96
2017-09-01 05:00:00 16 0 Calma 8 Sudoeste 0 1003.3 0.1 98
2017-09-01 04:00:00 15.6 4 Oeste 5 Oeste 0 1003.2 -0.3 98
2017-09-01 03:00:00 15.2 0 Calma 2 Este 0 1003.1 -0.6 98
2017-09-01 02:00:00 15.6 2 Nordeste 8 Nordeste 0 1003.2 -0.4 98
2017-09-01 01:00:00 15.9 4 Nordeste 5 Nordeste 0 1003.5 -0.4 97
2017-09-01 00:00:00 16.3 0 Calma 4 Sur 0 1003.7 -0.2 96
2017-08-31 23:00:00 16.9 0 Calma 5 Este 0 1003.6 0.4 95
2017-08-31 22:00:00 17.3 0 Calma 15 Nordeste 0 1003.9 1 95
2017-08-31 21:00:00 17.7 5 Norte 24 Nordeste 0 1003.9 1.1 93
2017-08-31 20:00:00 18.4 16 Nordeste 24 Este 0 1003.2 0.6 88
2017-08-31 19:00:00 19.8 13 Nordeste 22 Nordeste 0 1002.9 0.4 75
2017-08-31 18:00:00 21 15 Nordeste 26 Nordeste 0 1002.8 -0.1 67
2017-08-31 17:00:00 21.4 18 Nordeste 30 Nordeste 0 1002.6 -0.6 68
2017-08-31 16:00:00 21.4 17 Nordeste 24 Nordeste 0 1002.5 -0.4 73
2017-08-31 15:00:00 18.9 7 Norte 18 Nordeste 0.1 1002.9 0.6 86
2017-08-31 14:00:00 19.8 7 Oeste 17 Este 1.1 1003.2 0.8 88
2017-08-31 13:00:00 20.5 6 Este 15 Nordeste 0 1002.9 0.8 86
2017-08-31 12:00:00 21.1 11 Nordeste 22 Norte 0 1002.3 1.3 83
2017-08-31 11:00:00 21 3 Norte 15 Este 0.1 1002.4 1.6 88
2017-08-31 10:00:00 19.8 5 Noroeste 8 Norte 0.7 1002.1 1.8 94
2017-08-31 09:00:00 19.3 0 Calma 13 Noroeste 0.9 1001 0.9 93
2017-08-31 08:00:00 19.4 5 Noroeste 15 Noroeste 0.6 1000.8 1.2 91
2017-08-31 07:00:00 20.4 8 Norte 15 Nordeste 0.1 1000.3 1.2 83
2017-08-31 06:00:00 21.6 5 Norte 13 Norte 0 1000.1 2 75
2017-08-31 05:00:00 21.7 5 Este 13 Nordeste 0 999.6 1.4 74
2017-08-31 04:00:00 22 0 Calma 5 Norte 0 999.1 1.3 75
2017-08-31 03:00:00 22.3 4 Sur 13 Sur 0 998.1 0.7 73
2017-08-31 02:00:00 22.7 5 Oeste 21 Sudoeste 0 998.2 0.3 67
2017-08-31 01:00:00 23.1 22 Sur 30 Sur 0 997.8 0.1 64
2017-08-31 00:00:00 23.3 10 Sudoeste 21 Sur 0 997.4 0 59
2017-08-30 23:00:00 24.6 9 Sudoeste 33 Sudoeste 0 997.9 0.9 52
2017-08-30 22:00:00 25.3 17 Sudoeste 35 Sudoeste 0 997.7 0.8 49
2017-08-30 21:00:00 26.5 26 Sudoeste 39 Sudoeste 0 997.4 0.3 45
2017-08-30 20:00:00 28.4 27 Sudoeste 42 Sudoeste 0 997 0 37
2017-08-30 19:00:00 30.2 32 Sudoeste 48 Sudoeste 0 996.9 0.1 33
2017-08-30 18:00:00 31 30 Sudoeste 50 Sudoeste 0 997.1 0.2 33
2017-08-30 17:00:00 32.4 30 Sudoeste 52 Sudoeste 0 997 -0.5 31
2017-08-30 16:00:00 33.2 29 Sudoeste 52 Sudoeste 0 996.8 -0.9 29
2017-08-30 15:00:00 32.4 33 Sudoeste 52 Sur 0 996.9 -1.3 29
2017-08-30 14:00:00 31.9 36 Sur 46 Sur 0 997.5 -1.1 30
2017-08-30 13:00:00 30.5 35 Sudoeste 46 Sur 0 997.7 -1.5 30
2017-08-30 12:00:00 30.8 12 Sur 22 Sur 0 998.2 -0.7 33
2017-08-30 11:00:00 27.7 0 Calma 15 Sur 0 998.6 -1 44
2017-08-30 10:00:00 26 7 Sur 13 Este 0 999.2 0.2 52
2017-08-30 09:00:00 23.3 0 Calma 4 Sur 0 998.9 -0.2 63
2017-08-30 08:00:00 21.2 3 Oeste 9 Sur 0 999.6 1.1 68
2017-08-30 07:00:00 20.2 0 Calma 8 Nordeste 0 999 0.3 75
2017-08-30 06:00:00 19.9 0 Calma 4 Este 0 999.1 0.8 68
2017-08-30 05:00:00 20.3 3 Sur 8 Noroeste 0 998.5 0.5 65
2017-08-30 04:00:00 20.4 2 Sudoeste 8 Oeste 0 998.7 0.8 66
2017-08-30 03:00:00 20.7 2 Oeste 5 Oeste 0 998.3 0 65
2017-08-30 02:00:00 22.3 0 Calma 11 Este 0 998 -0.3 63
2017-08-30 01:00:00 23.1 0 Calma 4 Este 0 997.9 -0.2 59
2017-08-30 00:00:00 24.1 -- -- -- -- 0 998.3 0.5 50
2017-08-29 23:00:00 25.5 0 Calma 13 Noroeste 0 998.3 1.1 46
2017-08-29 22:00:00 28 5 Noroeste 21 Noroeste 0 998.1 0.9 37
2017-08-29 21:00:00 29.5 6 Noroeste 24 Noroeste 0 997.8 0.9 32
2017-08-29 20:00:00 31.2 14 Sudoeste 28 Sudoeste 0 997.2 0.4 34
2017-08-29 19:00:00 32.9 19 Sudoeste 37 Sudoeste 0 997.2 0.3 28
2017-08-29 18:00:00 35.5 22 Sudoeste 39 Sur 0 996.9 -0.1 25
2017-08-29 17:00:00 35.2 26 Sudoeste 48 Sudoeste 0 996.8 0.1 23
2017-08-29 16:00:00 36.6 21 Sudoeste 58 Sur 0 996.9 -0.6 22
2017-08-29 15:00:00 37.1 39 Sudoeste 55 Sur 0 997 -0.8 21
2017-08-29 14:00:00 36.2 34 Sur 46 Sur 0 996.7 -1.5 29
2017-08-29 13:00:00 34.7 19 Sur 30 Sur 0 997.5 -0.5 37
2017-08-29 12:00:00 33 6 Sur 33 Sur 0 997.8 -0.2 37
2017-08-29 11:00:00 30 6 Sur 15 Sur 0 998.2 0.9 46
2017-08-29 10:00:00 27.7 0 Calma 5 Sur 0 998 1 65
2017-08-29 09:00:00 24.4 0 Calma 5 Nordeste 0 998 1.3 79
2017-08-29 08:00:00 21 3 Nordeste 11 Norte 0 997.3 0.8 94
2017-08-29 07:00:00 20.9 5 Norte 11 Norte 0 997 0.1 94
2017-08-29 06:00:00 21.8 0 Calma 4 Norte 0 996.7 -0.6 90
2017-08-29 05:00:00 22.4 0 Calma 5 Norte 0 996.5 -0.9 90
2017-08-29 04:00:00 22.7 2 Sudoeste 8 Sudoeste 0 996.9 -1 89
2017-08-29 03:00:00 23.3 0 Calma 8 Sudoeste 0 997.3 -0.7 86
2017-08-29 02:00:00 23.9 5 Sur 8 Sur 0 997.4 -0.7 84
2017-08-29 01:00:00 24.2 3 Sudoeste 8 Sudoeste 0 997.9 0.1 81
2017-08-29 00:00:00 24 5 Sudoeste 11 Sudoeste 0 998 0.1 80
2017-08-28 23:00:00 24.1 0 Calma 5 Sudoeste 0 998.1 0.1 78
2017-08-28 22:00:00 24.7 0 Calma 5 Sudoeste 0 997.8 -0.4 74
2017-08-28 21:00:00 25.7 3 Sudoeste 13 Sur 0 997.9 -0.1 70
2017-08-28 20:00:00 27.1 8 Sur 21 Sudoeste 0 998 0.1 64
2017-08-28 19:00:00 28.1 15 Sur 28 Sur 0 998.2 0.3 64
2017-08-28 18:00:00 30.7 22 Sur 30 Sur 0 998 -0.1 48
2017-08-28 17:00:00 33.6 19 Sur 32 Sudoeste 0 997.9 -0.5 41
2017-08-28 16:00:00 34.3 17 Sudeste 26 Sudeste 0 997.9 -1.1 44
2017-08-28 15:00:00 36.2 18 Sudeste 28 Sudeste 0 998.1 -1.4 37
2017-08-28 14:00:00 36.2 4 Sudoeste 18 Sur 0 998.4 -1.5 29
2017-08-28 13:00:00 34.3 6 Sur 13 Sudeste 0 999 -1 37
2017-08-28 12:00:00 31.5 4 Este 21 Este 0 999.5 -0.4 50
2017-08-28 11:00:00 28.8 2 Sudeste 17 Sudeste 0 999.9 0.1 59
2017-08-28 10:00:00 25.6 4 Sur 13 Sur 0 1000 0.5 73
2017-08-28 09:00:00 23 3 Sudoeste 8 Sudoeste 0 999.9 0.8 83
2017-08-28 08:00:00 19.8 0 Calma 5 Oeste 0 999.8 0.6 95
2017-08-28 07:00:00 19.5 6 Sudoeste 8 Oeste 0 999.5 -0.1 95
2017-08-28 06:00:00 20.3 0 Calma -- -- 0 999.1 -1 94
2017-08-28 05:00:00 21.3 0 Calma 4 Norte 0 999.2 -1.4 93
2017-08-28 04:00:00 21.9 0 Calma -- -- 0 999.6 -1.1 92
2017-08-28 03:00:00 22.2 0 Calma 8 Este 0 1000.1 -1.1 90
2017-08-28 02:00:00 23.4 4 Este 11 Noroeste 0 1000.6 -0.1 86
2017-08-28 01:00:00 23.7 6 Norte 11 Norte 0 1000.7 0.1 85
2017-08-28 00:00:00 23.6 6 Nordeste 11 Nordeste 0 1001.2 1.8 86
2017-08-27 23:00:00 24.4 3 Sudoeste 30 Sur 0 1000.7 1.1 82
2017-08-27 22:00:00 24.4 18 Sur 32 Sur 0 1000.6 1.2 83
2017-08-27 21:00:00 24.5 2 Norte 21 Sur 0 999.4 0 82
2017-08-27 20:00:00 25.6 15 Sur 26 Sudoeste 0 999.6 0.1 77
2017-08-27 19:00:00 28.4 18 Sudoeste 26 Sudoeste 0 999.4 -0.1 63
2017-08-27 18:00:00 29.9 17 Sur 32 Sur 0 999.4 -0.3 57
2017-08-27 17:00:00 31.6 17 Sudeste 28 Sudeste 0 999.5 -0.7 50
2017-08-27 16:00:00 32.6 18 Sudeste 26 Sudeste 0 999.5 -1.2 47
2017-08-27 15:00:00 33.7 11 Sudeste 24 Sudeste 0 999.7 -1.6 41
2017-08-27 14:00:00 32.5 4 Sudeste 15 Sudeste 0 1000.2 -1.2 44
2017-08-27 13:00:00 30.1 6 Este 15 Nordeste 0 1000.7 -0.8 55
2017-08-27 12:00:00 28.5 5 Nordeste 21 Nordeste 0 1001.3 0.3 62
2017-08-27 11:00:00 27.5 8 Nordeste 18 Norte 0 1001.4 0.4 67
2017-08-27 10:00:00 26.4 10 Nordeste 17 Este 0 1001.5 0.4 72
2017-08-27 09:00:00 24.4 4 Nordeste 8 Nordeste 0 1001 0.1 82
2017-08-27 08:00:00 22.9 4 Nordeste 8 Norte 0 1001 0.4 89
2017-08-27 07:00:00 22.8 3 Norte 8 Norte 0 1001.1 0.4 91
2017-08-27 06:00:00 23 3 Norte 17 Nordeste 0 1000.9 -0.1 90
2017-08-27 05:00:00 22.5 3 Norte 11 Norte 0 1000.6 -0.3 92
2017-08-27 04:00:00 21.6 0 Calma 8 Nordeste 0 1000.7 -0.3 95
2017-08-27 03:00:00 21.3 0 Calma 4 Oeste 0 1001 -0.5 93
2017-08-27 02:00:00 21.9 0 Calma 4 Nordeste 0 1000.9 -0.6 92
2017-08-27 01:00:00 23 0 Calma 8 Sur 0 1001 -0.2 89
2017-08-27 00:00:00 23.5 4 Sur 11 Sudeste 0 1001.5 0.6 90
2017-08-26 23:00:00 24 4 Sudoeste 17 Sur 0 1001.5 1.4 87
2017-08-26 22:00:00 24.6 11 Sur 18 Sur 0 1001.2 1.1 83
2017-08-26 21:00:00 25.1 7 Sur 18 Sur 0 1000.9 0.8 78
2017-08-26 20:00:00 26.7 14 Sudoeste 22 Sudoeste 0 1000.1 -0.2 69
2017-08-26 19:00:00 28.5 13 Sudoeste 24 Sur 0 1000.1 -0.6 60
2017-08-26 18:00:00 30.6 18 Sur 28 Sur 0 1000.1 -0.8 51
2017-08-26 17:00:00 31.3 22 Sur 35 Sur 0 1000.3 -1 46
2017-08-26 16:00:00 32 22 Sur 35 Sur 0 1000.7 -0.6 48
2017-08-26 15:00:00 32.2 23 Sudoeste 33 Sudoeste 0 1000.9 -0.7 50
2017-08-26 14:00:00 32 15 Sur 28 Sudeste 0 1001.3 -0.5 53
2017-08-26 13:00:00 31.6 14 Sudeste 24 Sudeste 0 1001.3 -0.4 55
2017-08-26 12:00:00 30.4 7 Sur 21 Sur 0 1001.6 0 56
2017-08-26 11:00:00 27.8 4 Sur 17 Sur 0 1001.8 0.2 66
2017-08-26 10:00:00 25.9 0 Calma 8 Sudeste 0 1001.7 0.5 69
2017-08-26 09:00:00 22.7 0 Calma 5 Sudeste 0 1001.6 0.7 82
2017-08-26 08:00:00 20.3 0 Calma 9 Este 0 1001.6 0.8 93
2017-08-26 07:00:00 19.6 0 Calma 5 Oeste 0 1001.2 0.3 93
2017-08-26 06:00:00 20 0 Calma 4 Sudeste 0 1000.9 -0.2 92
2017-08-26 05:00:00 19.7 0 Calma 5 Oeste 0 1000.8 -1 95
2017-08-26 04:00:00 19.2 3 Norte 8 Oeste 0 1000.9 -1.4 95
2017-08-26 03:00:00 20.8 0 Calma 11 Sur 0 1001.1 -1.3 91
2017-08-26 02:00:00 21.6 6 Sudoeste 18 Sudoeste 0 1001.8 -0.8 90
2017-08-26 01:00:00 21.8 9 Sudoeste 17 Sur 0 1002.3 0.4 92
2017-08-26 00:00:00 22.9 6 Sur 11 Sur 0 1002.4 1.4 91
2017-08-25 23:00:00 23.2 6 Sudoeste 15 Sudoeste 0 1002.6 2 90
2017-08-25 22:00:00 24.3 11 Sudoeste 22 Sudoeste 0 1001.9 1.2 86
2017-08-25 21:00:00 24.9 16 Sur 28 Sur 0 1001 0.4 81
2017-08-25 20:00:00 26.9 16 Sur 33 Sur 0 1000.6 -0.3 67
2017-08-25 19:00:00 28 21 Sur 33 Sur 0 1000.7 -0.4 61
2017-08-25 18:00:00 30.3 23 Sur 39 Sudoeste 0 1000.6 -0.9 52
2017-08-25 17:00:00 32.5 30 Sur 37 Sur 0 1000.9 -0.7 33
2017-08-25 16:00:00 33.3 26 Sur 37 Sur 0 1001.1 -0.7 29
2017-08-25 15:00:00 32.5 27 Sur 42 Sur 0 1001.5 -0.6 31
2017-08-25 14:00:00 32.4 28 Sur 41 Sur 0 1001.6 -0.5 39
2017-08-25 13:00:00 32.6 28 Sur 39 Sur 0 1001.8 -0.2 33
2017-08-25 12:00:00 31.2 26 Sur 37 Sur 0 1002.1 0 42
2017-08-25 11:00:00 29.6 20 Sur 26 Sur 0 1002.1 0.3 50
2017-08-25 10:00:00 24.8 6 Sudoeste 13 Sudoeste 0 1002 0.4 71
2017-08-25 09:00:00 20.4 3 Sur 8 Sur 0 1002.1 0.4 81
2017-08-25 08:00:00 17.3 0 Calma 4 Oeste 0 1001.8 0.1 91
2017-08-25 07:00:00 16.5 0 Calma 4 Sur 0 1001.6 0 90
2017-08-25 06:00:00 17.2 0 Calma 5 Oeste 0 1001.7 -0.2 92
2017-08-25 05:00:00 18.5 4 Oeste 11 Sudoeste 0 1001.7 -0.3 91
2017-08-25 04:00:00 19.2 3 Sudoeste 17 Sudoeste 0 1001.6 -0.5 89
2017-08-25 03:00:00 19.8 6 Sudoeste 13 Sudoeste 0 1001.9 0.2 91
2017-08-25 02:00:00 21.1 3 Sudoeste 8 Sudoeste 0 1002 0.3 93
2017-08-25 01:00:00 22.6 5 Sur 17 Sur 0 1002.1 0.6 92
2017-08-25 00:00:00 23.5 12 Sur 26 Sur 0 1001.7 1 88
2017-08-24 23:00:00 23.9 18 Sur 26 Sur 0 1001.7 1.9 86
2017-08-24 22:00:00 24.4 14 Sur 18 Sur 0 1001.5 1.9 82
2017-08-24 21:00:00 25.5 10 Sur 39 Sur 0 1000.7 0.8 72
2017-08-24 20:00:00 28 32 Sur 45 Sur 0 999.8 -0.1 54
2017-08-24 19:00:00 29.9 35 Sur 50 Sur 0 999.6 -0.6 47
2017-08-24 18:00:00 30.6 38 Sur 52 Sur 0 999.9 -0.7 51
2017-08-24 17:00:00 32 36 Sur 48 Sur 0 999.9 -1.1 44
2017-08-24 16:00:00 32.7 36 Sur 50 Sur 0 1000.2 -1.4 38
2017-08-24 15:00:00 33.5 32 Sur 42 Sur 0 1000.6 -1.4 36
2017-08-24 14:00:00 33.3 22 Sur 33 Sur 0 1001 -1 31
2017-08-24 13:00:00 31.6 22 Sur 35 Sur 0 1001.6 0.4 34
2017-08-24 12:00:00 28.7 17 Sur 24 Sur 0 1002 0.8 43
2017-08-24 11:00:00 26.4 12 Sur 18 Sudoeste 0 1002 0.7 55
2017-08-24 10:00:00 23.6 4 Sudeste 15 Oeste 0 1001.2 -0.1 68
2017-08-24 09:00:00 21.6 0 Calma 15 Noroeste 0 1001.2 0.2 73
2017-08-24 08:00:00 18.7 5 Oeste 11 Sudoeste 0 1001.3 0 87
2017-08-24 07:00:00 19.2 5 Sudeste 13 Sur 0 1001.3 0.3 82
2017-08-24 06:00:00 19 0 Calma 5 Oeste 0 1001 0.1 85
2017-08-24 05:00:00 19.8 2 Oeste 8 Oeste 0 1001.3 0.6 82
2017-08-24 04:00:00 20.9 4 Oeste 11 Oeste 0 1001 0.1 81
2017-08-24 03:00:00 20.5 5 Nordeste 8 Nordeste 0 1000.9 0.2 84
2017-08-24 02:00:00 21.9 2 Oeste 9 Sudoeste 0 1000.7 0 80
2017-08-24 01:00:00 22.6 0 Calma 5 Noroeste 0 1000.9 0.3 76
2017-08-24 00:00:00 23.3 3 Oeste 8 Oeste 0 1000.7 0.3 73
2017-08-23 23:00:00 23.9 7 Sur 13 Sur 0 1000.7 0.4 72
2017-08-23 22:00:00 24.4 8 Sur 15 Sur 0 1000.6 0.6 66
2017-08-23 21:00:00 25.8 10 Sur 24 Sur 0 1000.4 0.5 59
2017-08-23 20:00:00 27.5 21 Sur 33 Sur 0 1000.3 0.5 51
2017-08-23 19:00:00 29.9 19 Sur 35 Sur 0 1000 -0.4 46
2017-08-23 18:00:00 31.3 24 Sur 35 Sur 0 999.9 -1.1 41
2017-08-23 17:00:00 32.2 24 Sur 35 Sur 0 999.8 -2 41
2017-08-23 16:00:00 32.5 27 Sur 37 Sur 0 1000.4 -1.8 40
2017-08-23 15:00:00 31.7 25 Sur 35 Sur 0 1001 -1.9 47
2017-08-23 14:00:00 30.2 17 Sur 33 Sur 0 1001.8 -0.7 47
2017-08-23 13:00:00 30.8 12 Sur 21 Sur 0 1002.2 -0.1 51
2017-08-23 12:00:00 29.7 0 Calma 15 Sur 0 1002.9 0.7 52
2017-08-23 11:00:00 27.8 7 Sudeste 18 Sur 0 1002.5 0.3 57
2017-08-23 10:00:00 25.8 7 Sudeste 15 Sudeste 0 1002.3 0.5 67
2017-08-23 09:00:00 22.2 3 Oeste 8 Oeste 0 1002.2 1.1 82
2017-08-23 08:00:00 20.4 0 Calma 11 Norte 0 1002.2 1.4 88
2017-08-23 07:00:00 20.3 7 Norte 15 Norte 0 1001.8 1.9 90
2017-08-23 06:00:00 19.4 4 Norte 8 Norte 0 1001.1 0.6 92
2017-08-23 05:00:00 20.3 0 Calma 15 Norte 0 1000.8 0 88
2017-08-23 04:00:00 19.6 5 Nordeste 8 Nordeste 0 999.9 -1.1 91
2017-08-23 03:00:00 20.1 2 Nordeste 4 Nordeste 0 1000.5 -0.3 90
2017-08-23 02:00:00 21 0 Calma 11 Este 0 1000.8 0.3 87
2017-08-23 01:00:00 22 0 Calma 4 Nordeste 0 1001 0.7 84
2017-08-23 00:00:00 23.2 2 Sudoeste 11 Sur 0 1000.8 0.9 79
2017-08-22 23:00:00 23.8 4 Sudoeste 17 Sur 0 1000.5 0.9 77
2017-08-22 22:00:00 24.6 8 Sur 24 Sur 0 1000.3 0.7 71
2017-08-22 21:00:00 25.6 13 Sur 26 Sur 0 999.9 0.2 65
2017-08-22 20:00:00 27.4 16 Sur 32 Sur 0 999.6 -0.2 57
2017-08-22 19:00:00 28.8 24 Sur 37 Sur 0 999.6 -0.4 52
2017-08-22 18:00:00 29.7 27 Sur 42 Sur 0 999.7 -0.8 52
2017-08-22 17:00:00 30.4 28 Sur 42 Sur 0 999.8 -1 52
2017-08-22 16:00:00 31.1 30 Sur 41 Sur 0 1000 -1.5 49
2017-08-22 15:00:00 31.4 28 Sur 41 Sur 0 1000.5 -1.3 46
2017-08-22 14:00:00 31.4 27 Sur 37 Sur 0 1000.8 -1.4 46
2017-08-22 13:00:00 31 22 Sur 35 Sur 0 1001.5 -1 47
2017-08-22 12:00:00 30.5 21 Sur 28 Sur 0 1001.8 -0.5 48
2017-08-22 11:00:00 27.9 6 Sur 15 Sur 0 1002.2 -0.1 52
2017-08-22 10:00:00 25.4 0 Calma 5 Sur 0 1002.5 0.2 52
2017-08-22 09:00:00 21.6 0 Calma 4 Sur 0 1002.3 0.1 67
2017-08-22 08:00:00 17.2 0 Calma -- -- 0 1002.3 0 85
2017-08-22 07:00:00 15.7 0 Calma 2 Sudoeste 0 1002.3 -0.1 88
2017-08-22 06:00:00 16.1 0 Calma 2 Nordeste 0 1002.2 -0.1 85
2017-08-22 05:00:00 16.5 0 Calma 5 Norte 0 1002.3 -0.1 84
2017-08-22 04:00:00 16.4 0 Calma 4 Sudeste 0 1002.4 -0.1 84
2017-08-22 03:00:00 17.5 0 Calma 8 Oeste 0 1002.3 -0.5 79
2017-08-22 02:00:00 17.8 0 Calma -- -- 0 1002.4 -0.5 77
2017-08-22 01:00:00 18.7 0 Calma 4 Oeste 0 1002.5 -0.5 75
2017-08-22 00:00:00 20 4 Oeste 5 Oeste 0 1002.8 0.1 71